Time;durP1;ratioP1;P1;durP2;ratioP2;P2;SDS_P1;SDS_P2;PMS_P1;PMS_P2;Temp;Humidity;BMP_temperature;BMP_pressure;BME280_temperature;BME280_humidity;BME280_pressure;Samples;Min_cycle;Max_cycle;Signal;HPM_P1;HPM_P2
2023/05/07 00:02:01;;;;;;;5.10;4.70;;;;;;;11.26;100.00;96388.63;7402456;19;20892;-72
2023/05/07 00:04:28;;;;;;;5.20;4.80;;;;;;;11.11;100.00;96382.09;7399273;19;20408;-72
2023/05/07 00:06:55;;;;;;;5.40;4.97;;;;;;;11.08;100.00;96397.81;7402208;19;20360;-71
2023/05/07 00:09:22;;;;;;;6.50;6.00;;;;;;;11.10;100.00;96398.28;7399094;19;20417;-71
2023/05/07 00:11:49;;;;;;;5.93;5.03;;;;;;;11.10;100.00;96398.28;7400605;19;20773;-71
2023/05/07 00:14:16;;;;;;;5.43;4.93;;;;;;;10.80;100.00;96381.75;7400588;19;20376;-71
2023/05/07 00:16:42;;;;;;;5.33;4.93;;;;;;;10.90;100.00;96405.16;7398608;19;21008;-71
2023/05/07 00:19:10;;;;;;;6.60;5.00;;;;;;;10.90;100.00;96407.81;7397780;19;20442;-71
2023/05/07 00:21:37;;;;;;;7.20;5.60;;;;;;;10.80;100.00;96389.69;7400539;19;20373;-71
2023/05/07 00:24:04;;;;;;;5.60;4.90;;;;;;;10.88;100.00;96402.84;7398989;19;20740;-71
2023/05/07 00:26:31;;;;;;;5.37;4.97;;;;;;;10.93;100.00;96410.56;7400332;19;20404;-71
2023/05/07 00:28:58;;;;;;;5.13;4.83;;;;;;;10.88;100.00;96408.16;7398002;19;20413;-71
2023/05/07 00:31:25;;;;;;;10.10;5.70;;;;;;;10.89;100.00;96406.28;7401591;19;20684;-71
2023/05/07 00:33:52;;;;;;;7.00;6.30;;;;;;;10.83;100.00;96399.66;7397856;19;20393;-72
2023/05/07 00:36:19;;;;;;;6.77;6.17;;;;;;;10.61;100.00;96351.31;7399124;19;20399;-72
2023/05/07 00:38:46;;;;;;;6.67;6.10;;;;;;;11.00;100.00;96391.53;7397804;19;20500;-72
2023/05/07 00:41:13;;;;;;;6.30;5.70;;;;;;;11.00;100.00;96398.72;7400056;19;20382;-72
2023/05/07 00:43:40;;;;;;;6.27;5.67;;;;;;;10.82;100.00;96383.00;7398700;19;20395;-72
2023/05/07 00:46:07;;;;;;;7.37;6.67;;;;;;;10.82;100.00;96398.09;7401432;19;20356;-72
2023/05/07 00:48:34;;;;;;;7.30;6.67;;;;;;;10.87;100.00;96400.53;7397811;19;20440;-71
2023/05/07 00:51:01;;;;;;;6.50;6.00;;;;;;;10.56;100.00;96363.97;7401198;19;20369;-71
2023/05/07 00:53:28;;;;;;;6.13;5.63;;;;;;;10.52;100.00;96361.16;7398178;19;20349;-71
2023/05/07 00:55:55;;;;;;;7.40;6.73;;;;;;;10.72;100.00;96393.97;7398732;19;20401;-72
2023/05/07 00:58:23;;;;;;;6.33;5.83;;;;;;;10.63;100.00;96391.41;7397429;19;20377;-72
2023/05/07 01:00:50;;;;;;;6.97;6.47;;;;;;;10.29;100.00;96363.41;7399620;19;20409;-71
2023/05/07 01:03:17;;;;;;;7.30;6.23;;;;;;;10.34;100.00;96394.13;7397906;19;20408;-71
2023/05/07 01:05:47;;;;;;;7.03;6.33;;;;;;;10.26;100.00;96368.53;7399578;19;20381;-71
2023/05/07 01:08:16;;;;;;;7.73;6.63;;;;;;;10.24;100.00;96376.78;7399409;19;20360;-71
2023/05/07 01:10:44;;;;;;;7.50;6.80;;;;;;;10.24;100.00;96390.00;7400074;19;20390;-71
2023/05/07 01:13:12;;;;;;;11.77;7.40;;;;;;;10.23;100.00;96398.25;7398231;19;20728;-71
2023/05/07 01:15:41;;;;;;;7.97;7.37;;;;;;;10.07;100.00;96396.16;7396912;19;20443;-71
2023/05/07 01:18:08;;;;;;;7.27;6.67;;;;;;;9.77;100.00;96369.00;7398780;19;20390;-71
2023/05/07 01:20:35;;;;;;;8.23;7.53;;;;;;;9.78;100.00;96382.97;7396290;19;20479;-71
2023/05/07 01:23:03;;;;;;;8.27;7.57;;;;;;;9.84;100.00;96375.63;7398526;19;20398;-71
2023/05/07 01:25:30;;;;;;;7.90;7.30;;;;;;;9.72;100.00;96357.81;7395988;19;20380;-71
2023/05/07 01:28:01;;;;;;;8.33;7.53;;;;;;;10.00;100.00;96382.66;7397599;19;20387;-71
2023/05/07 01:30:34;;;;;;;6.90;6.30;;;;;;;10.12;100.00;96387.25;7396387;19;20919;-72
2023/05/07 01:33:11;;;;;;;7.70;6.63;;;;;;;9.92;100.00;96370.31;7397953;19;20884;-72
2023/05/07 01:35:41;;;;;;;8.97;7.20;;;;;;;10.08;100.00;96395.06;7396739;19;20713;-72
2023/05/07 01:38:08;;;;;;;8.33;7.63;;;;;;;10.09;100.00;96401.09;7397109;19;20424;-72
2023/05/07 01:40:35;;;;;;;7.60;7.00;;;;;;;10.14;100.00;96402.78;7396907;19;20839;-72
2023/05/07 01:43:03;;;;;;;7.57;6.87;;;;;;;9.91;100.00;96400.44;7398213;19;20900;-72
2023/05/07 01:45:33;;;;;;;8.83;7.93;;;;;;;9.96;100.00;96407.41;7396267;19;20388;-71
2023/05/07 01:48:02;;;;;;;8.80;7.90;;;;;;;9.50;100.00;96358.88;7398320;19;20389;-71
2023/05/07 01:50:31;;;;;;;9.87;7.97;;;;;;;9.78;100.00;96390.88;7396949;19;20752;-71
2023/05/07 01:52:58;;;;;;;9.67;7.57;;;;;;;9.50;100.00;96369.44;7395372;19;20404;-72
2023/05/07 01:55:25;;;;;;;8.90;8.10;;;;;;;9.58;100.00;96381.03;7396856;19;20373;-72
2023/05/07 01:57:52;;;;;;;9.57;7.30;;;;;;;9.59;100.00;96391.28;7393624;19;20380;-72
2023/05/07 02:00:19;;;;;;;8.13;7.43;;;;;;;9.40;100.00;96330.22;7394659;19;20444;-72
2023/05/07 02:02:46;;;;;;;7.53;6.93;;;;;;;9.89;100.00;96392.06;7395014;19;20763;-71
2023/05/07 02:05:25;;;;;;;8.70;7.30;;;;;;;9.98;100.00;96392.00;7397133;19;20376;-71
2023/05/07 02:08:00;;;;;;;9.40;8.47;;;;;;;10.05;100.00;96397.56;7395380;19;20382;-71
2023/05/07 02:10:29;;;;;;;7.43;6.63;;;;;;;9.90;100.00;96379.66;7396750;19;20379;-71
2023/05/07 02:12:55;;;;;;;8.63;7.90;;;;;;;9.94;100.00;96399.81;7396351;19;20384;-71
2023/05/07 02:15:23;;;;;;;9.40;8.00;;;;;;;9.60;100.00;96381.50;7399030;19;20768;-71
2023/05/07 02:18:07;;;;;;;10.23;9.27;;;;;;;9.46;100.00;96377.19;7393748;19;20447;-71
2023/05/07 02:20:35;;;;;;;8.63;7.93;;;;;;;9.21;100.00;96361.47;7394552;19;20397;-71
2023/05/07 02:23:02;;;;;;;8.63;7.73;;;;;;;9.07;100.00;96337.94;7396120;19;20408;-71
2023/05/07 02:25:29;;;;;;;8.47;7.67;;;;;;;9.37;100.00;96381.00;7394488;19;20882;-71
2023/05/07 02:27:57;;;;;;;8.00;7.40;;;;;;;9.21;100.00;96380.72;7395885;19;20398;-72
2023/05/07 02:30:37;;;;;;;8.33;7.63;;;;;;;9.35;100.00;96386.59;7394637;19;20920;-72
2023/05/07 02:33:05;;;;;;;8.23;7.53;;;;;;;9.38;100.00;96366.69;7396512;19;20380;-72
2023/05/07 02:35:32;;;;;;;9.53;7.57;;;;;;;9.45;100.00;96367.75;7394884;19;20373;-72
2023/05/07 02:37:59;;;;;;;8.17;7.37;;;;;;;9.63;100.00;96371.09;7394573;19;20413;-72
2023/05/07 02:40:26;;;;;;;8.53;7.57;;;;;;;9.50;100.00;96364.16;7393011;19;20453;-72
2023/05/07 02:42:53;;;;;;;8.70;7.90;;;;;;;9.53;100.00;96366.16;7396198;19;20769;-72
2023/05/07 02:45:20;;;;;;;9.03;8.33;;;;;;;9.62;100.00;96379.34;7394143;19;20363;-72
2023/05/07 02:47:51;;;;;;;9.47;8.57;;;;;;;9.29;100.00;96363.31;7395859;19;20452;-72
2023/05/07 02:50:17;;;;;;;9.70;8.70;;;;;;;9.34;100.00;96369.19;7392604;19;20432;-72
2023/05/07 02:52:44;;;;;;;10.00;9.10;;;;;;;9.10;100.00;96339.97;7396301;19;20393;-72
2023/05/07 02:55:11;;;;;;;12.00;9.03;;;;;;;9.05;100.00;96340.13;7395017;19;20380;-72
2023/05/07 02:57:38;;;;;;;11.93;10.20;;;;;;;8.81;100.00;96309.81;7394384;19;20402;-72
2023/05/07 03:00:11;;;;;;;9.97;9.10;;;;;;;9.16;100.00;96367.69;7416620;19;20476;-71
2023/05/07 03:02:41;;;;;;;15.17;10.50;;;;;;;8.88;100.00;96340.94;7427883;19;20372;-71
2023/05/07 03:05:08;;;;;;;10.00;9.00;;;;;;;8.79;100.00;96350.72;7429976;19;20365;-71
2023/05/07 03:07:35;;;;;;;8.00;7.30;;;;;;;8.81;100.00;96361.72;7407555;19;20364;-72
2023/05/07 03:10:04;;;;;;;12.20;9.93;;;;;;;8.80;100.00;96360.19;7394689;19;20404;-72
2023/05/07 03:12:31;;;;;;;10.67;9.70;;;;;;;8.77;100.00;96358.19;7393239;19;20715;-73
2023/05/07 03:14:58;;;;;;;9.53;8.53;;;;;;;8.55;100.00;96330.94;7394779;19;20400;-72
2023/05/07 03:17:25;;;;;;;9.80;8.90;;;;;;;8.71;100.00;96357.59;7392285;19;20391;-72
2023/05/07 03:19:52;;;;;;;11.40;10.20;;;;;;;8.63;100.00;96341.78;7393249;19;20442;-72
2023/05/07 03:22:19;;;;;;;14.13;12.70;;;;;;;8.47;100.00;96359.94;7393489;19;20388;-72
2023/05/07 03:24:46;;;;;;;16.70;14.90;;;;;;;8.38;100.00;96346.75;7394481;19;20452;-70
2023/05/07 03:27:12;;;;;;;21.33;17.47;;;;;;;8.29;100.00;96344.13;7392578;19;20925;-71
2023/05/07 03:29:40;;;;;;;19.83;15.93;;;;;;;8.43;100.00;96357.16;7393221;19;20436;-71
2023/05/07 03:32:07;;;;;;;14.77;12.73;;;;;;;8.26;100.00;96331.53;7394292;19;20847;-71
2023/05/07 03:34:34;;;;;;;11.57;10.37;;;;;;;8.13;100.00;96336.97;7393860;19;20369;-71
2023/05/07 03:37:01;;;;;;;9.97;8.97;;;;;;;8.45;100.00;96333.13;7391949;19;20387;-71
2023/05/07 03:39:28;;;;;;;11.80;10.47;;;;;;;8.49;100.00;96342.72;7394319;19;20429;-71
2023/05/07 03:41:55;;;;;;;13.17;12.07;;;;;;;8.30;100.00;96306.16;7392829;19;20380;-71
2023/05/07 03:44:22;;;;;;;12.10;10.30;;;;;;;8.65;100.00;96356.19;7394261;19;20410;-71
2023/05/07 03:46:50;;;;;;;9.70;8.80;;;;;;;8.61;100.00;96338.69;7392254;19;20368;-71
2023/05/07 03:49:17;;;;;;;11.40;8.97;;;;;;;8.72;100.00;96342.53;7394671;19;20965;-71
2023/05/07 03:51:44;;;;;;;11.20;9.27;;;;;;;8.85;100.00;96350.25;7392107;19;20443;-71
2023/05/07 03:54:11;;;;;;;10.93;9.80;;;;;;;8.98;100.00;96347.75;7394598;19;20401;-71
2023/05/07 03:56:42;;;;;;;10.30;9.27;;;;;;;9.03;100.00;96355.50;7392217;19;20378;-71
2023/05/07 03:59:09;;;;;;;11.00;10.10;;;;;;;9.14;100.00;96367.25;7392678;19;20453;-71
2023/05/07 04:01:36;;;;;;;9.30;8.27;;;;;;;8.56;100.00;96321.97;7392950;19;20376;-71
2023/05/07 04:04:04;;;;;;;10.43;9.43;;;;;;;8.79;100.00;96362.06;7394013;19;20369;-71
2023/05/07 04:06:32;;;;;;;8.07;7.43;;;;;;;8.58;100.00;96337.44;7392633;19;20794;-71
2023/05/07 04:08:59;;;;;;;9.93;9.03;;;;;;;8.59;100.00;96331.09;7393787;19;20436;-71
2023/05/07 04:11:27;;;;;;;9.63;8.73;;;;;;;8.66;100.00;96372.78;7400212;19;20388;-71
2023/05/07 04:13:54;;;;;;;10.50;9.50;;;;;;;8.58;100.00;96371.72;7401563;19;20372;-72
2023/05/07 04:16:22;;;;;;;10.40;9.50;;;;;;;8.33;100.00;96336.34;7400034;19;20392;-72
2023/05/07 04:18:50;;;;;;;9.73;8.80;;;;;;;8.67;100.00;96371.69;7398688;19;20448;-71
2023/05/07 04:21:19;;;;;;;11.03;9.97;;;;;;;8.73;100.00;96381.00;7399715;19;20361;-71
2023/05/07 04:23:48;;;;;;;12.57;9.00;;;;;;;8.77;100.00;96384.53;7398300;19;20372;-71
2023/05/07 04:26:15;;;;;;;9.97;9.07;;;;;;;8.82;100.00;96390.44;7399811;19;20420;-71
2023/05/07 04:28:43;;;;;;;10.17;9.23;;;;;;;8.84;100.00;96390.91;7397683;19;20779;-71
2023/05/07 04:31:11;;;;;;;11.57;10.47;;;;;;;8.88;100.00;96391.81;7399993;19;20377;-71
2023/05/07 04:33:39;;;;;;;9.97;9.03;;;;;;;9.10;100.00;96395.34;7398308;19;20383;-71
2023/05/07 04:36:09;;;;;;;11.30;10.10;;;;;;;9.18;100.00;96386.63;7399818;19;20392;-72
2023/05/07 04:38:43;;;;;;;12.67;10.63;;;;;;;9.29;100.00;96408.94;7395908;19;20440;-71
2023/05/07 04:41:13;;;;;;;10.13;9.23;;;;;;;9.28;100.00;96391.56;7400083;19;20383;-71
2023/05/07 04:43:41;;;;;;;11.73;10.60;;;;;;;9.38;100.00;96419.47;7398899;19;20372;-71
2023/05/07 04:46:10;;;;;;;12.63;11.20;;;;;;;9.48;100.00;96405.91;7399950;19;20359;-71
2023/05/07 04:48:37;;;;;;;10.90;9.90;;;;;;;9.43;100.00;96393.69;7398180;19;20507;-71
2023/05/07 04:51:06;;;;;;;15.40;10.60;;;;;;;9.68;100.00;96415.00;7399714;19;20373;-71
2023/05/07 04:53:33;;;;;;;13.23;11.87;;;;;;;9.87;100.00;96425.16;7398139;19;20372;-71
2023/05/07 04:56:00;;;;;;;13.20;11.90;;;;;;;9.92;100.00;96425.75;7400006;19;20380;-71
2023/05/07 04:58:33;;;;;;;14.63;11.60;;;;;;;9.84;100.00;96410.72;7396830;19;20409;-71
2023/05/07 05:01:01;;;;;;;12.63;11.37;;;;;;;10.00;100.00;96446.06;7399789;19;20727;-71
2023/05/07 05:03:29;;;;;;;12.50;11.20;;;;;;;10.07;100.00;96448.97;7398737;19;20405;-71
2023/05/07 05:05:59;;;;;;;12.93;11.53;;;;;;;9.99;100.00;96420.75;7396964;19;20451;-71
2023/05/07 05:08:30;;;;;;;14.57;11.63;;;;;;;10.00;100.00;96440.00;7398081;19;20508;-71
2023/05/07 05:10:58;;;;;;;13.97;12.67;;;;;;;9.98;100.00;96424.47;7399418;19;20899;-71
2023/05/07 05:13:25;;;;;;;13.13;11.43;;;;;;;10.21;100.00;96458.53;7398604;19;20759;-71
2023/05/07 05:15:52;;;;;;;12.27;11.07;;;;;;;9.96;100.00;96437.22;7397171;19;20415;-71
2023/05/07 05:18:20;;;;;;;14.20;12.83;;;;;;;10.04;100.00;96449.63;7396961;19;20484;-71
2023/05/07 05:20:47;;;;;;;13.97;12.57;;;;;;;10.04;100.00;96439.06;7395606;19;20392;-71
2023/05/07 05:23:14;;;;;;;19.33;11.27;;;;;;;10.21;100.00;96469.91;7398618;19;20397;-71
2023/05/07 05:25:41;;;;;;;14.33;12.93;;;;;;;10.34;100.00;96460.97;7398302;19;20353;-71
2023/05/07 05:28:11;;;;;;;13.20;11.83;;;;;;;10.26;100.00;96461.78;7398439;19;20380;-71
2023/05/07 05:30:39;;;;;;;13.03;11.73;;;;;;;10.16;100.00;96435.72;7396640;19;20377;-71
2023/05/07 05:33:07;;;;;;;14.00;12.67;;;;;;;10.37;100.00;96446.34;7398053;19;20376;-71
2023/05/07 05:35:35;;;;;;;14.60;13.10;;;;;;;10.14;100.00;96422.06;7396894;19;20771;-71
2023/05/07 05:38:04;;;;;;;14.20;12.67;;;;;;;10.48;100.00;96462.59;7396829;19;20390;-71
2023/05/07 05:40:33;;;;;;;15.23;12.90;;;;;;;10.52;100.00;96439.72;7397051;19;20373;-71
2023/05/07 05:43:00;;;;;;;16.37;14.70;;;;;;;10.82;100.00;96464.22;7398443;19;20944;-71
2023/05/07 05:45:27;;;;;;;16.13;14.53;;;;;;;10.74;100.00;96417.47;7396733;19;20368;-71
2023/05/07 05:47:56;;;;;;;16.63;14.63;;;;;;;11.10;100.00;96446.69;7398626;19;20392;-71
2023/05/07 05:50:23;;;;;;;17.07;14.50;;;;;;;11.03;100.00;96427.91;7394856;19;20828;-72
2023/05/07 05:52:51;;;;;;;19.73;15.13;;;;;;;10.96;100.00;96419.75;7398586;19;20400;-71
2023/05/07 05:55:20;;;;;;;18.27;14.43;;;;;;;11.34;100.00;96458.44;7396470;19;20733;-71
2023/05/07 05:57:47;;;;;;;20.47;15.43;;;;;;;11.28;100.00;96420.06;7394090;19;20395;-71
2023/05/07 06:00:15;;;;;;;16.87;14.90;;;;;;;11.53;100.00;96459.47;7394451;19;20453;-71
2023/05/07 06:02:45;;;;;;;20.87;15.47;;;;;;;11.65;100.00;96447.38;7397415;19;20361;-71
2023/05/07 06:05:18;;;;;;;17.10;15.40;;;;;;;11.76;100.00;96436.00;7399626;19;20372;-72
2023/05/07 06:07:48;;;;;;;17.43;15.70;;;;;;;11.44;100.00;96444.78;7396231;19;20769;-72
2023/05/07 06:10:16;;;;;;;19.27;15.30;;;;;;;11.72;100.00;96461.59;7395946;19;20416;-71
2023/05/07 06:12:43;;;;;;;16.67;14.93;;;;;;;11.78;100.00;96465.59;7395285;19;20377;-71
2023/05/07 06:15:10;;;;;;;18.47;15.87;;;;;;;12.12;100.00;96464.41;7396808;19;20373;-71
2023/05/07 06:17:38;;;;;;;17.87;16.00;;;;;;;12.01;100.00;96476.53;7394393;19;20715;-71
2023/05/07 06:20:06;;;;;;;15.80;14.20;;;;;;;12.20;100.00;96478.66;7394822;19;20439;-72
2023/05/07 06:22:34;;;;;;;16.70;14.90;;;;;;;12.06;100.00;96481.63;7394890;19;20365;-71
2023/05/07 06:25:02;;;;;;;16.40;14.70;;;;;;;12.16;100.00;96475.13;7396068;19;20783;-71
2023/05/07 06:27:29;;;;;;;16.37;14.63;;;;;;;12.30;100.00;96472.13;7395483;19;20377;-72
2023/05/07 06:29:57;;;;;;;15.13;13.57;;;;;;;12.67;100.00;96494.03;7395357;19;20440;-71
2023/05/07 06:32:24;;;;;;;17.97;16.37;;;;;;;12.63;100.00;96493.94;7392502;19;20384;-71
2023/05/07 06:34:51;;;;;;;15.97;14.27;;;;;;;12.73;100.00;96471.50;7396541;19;20393;-71
2023/05/07 06:37:18;;;;;;;17.27;15.53;;;;;;;13.23;100.00;96489.59;7394811;19;20369;-71
2023/05/07 06:39:52;;;;;;;16.97;14.73;;;;;;;13.15;100.00;96484.41;7395797;19;20514;-71
2023/05/07 06:42:19;;;;;;;17.80;16.07;;;;;;;13.00;100.00;96488.56;7395309;19;20376;-71
2023/05/07 06:44:48;;;;;;;16.43;14.40;;;;;;;12.82;100.00;96511.94;7396373;19;20368;-71
2023/05/07 06:47:16;;;;;;;15.93;14.33;;;;;;;12.49;100.00;96512.09;7396579;19;20877;-71
2023/05/07 06:49:47;;;;;;;15.27;13.67;;;;;;;12.55;100.00;96509.97;7392231;19;20988;-71
2023/05/07 06:52:16;;;;;;;16.30;14.53;;;;;;;11.97;100.00;96488.91;7394872;19;20912;-71
2023/05/07 06:54:45;;;;;;;21.50;15.97;;;;;;;12.04;100.00;96483.06;7393336;19;20892;-71
2023/05/07 06:57:14;;;;;;;20.10;15.23;;;;;;;12.17;100.00;96505.06;7395123;19;20411;-71
2023/05/07 06:59:41;;;;;;;19.50;15.63;;;;;;;12.21;100.00;96482.84;7393538;19;20408;-71
2023/05/07 07:02:09;;;;;;;17.70;15.77;;;;;;;12.56;100.00;96503.59;7395285;19;20384;-71
2023/05/07 07:04:36;;;;;;;17.57;15.63;;;;;;;12.56;100.00;96500.94;7394003;19;20416;-71
2023/05/07 07:07:08;;;;;;;15.37;13.87;;;;;;;12.50;100.00;96512.88;7395357;19;20349;-71
2023/05/07 07:09:35;;;;;;;19.60;15.33;;;;;;;12.53;100.00;96505.00;7392154;19;20468;-71
2023/05/07 07:12:04;;;;;;;17.30;15.03;;;;;;;12.71;100.00;96516.16;7395352;19;20375;-71
2023/05/07 07:14:33;;;;;;;17.10;15.30;;;;;;;12.69;100.00;96491.84;7393733;19;20364;-71
2023/05/07 07:17:00;;;;;;;17.90;15.93;;;;;;;12.70;100.00;96491.50;7395331;19;20904;-72
2023/05/07 07:19:27;;;;;;;18.83;16.20;;;;;;;12.60;100.00;96484.00;7392300;19;20437;-72
2023/05/07 07:21:55;;;;;;;19.13;17.10;;;;;;;12.62;100.00;96481.78;7395581;19;20383;-72
2023/05/07 07:24:22;;;;;;;19.57;17.50;;;;;;;12.67;100.00;96480.78;7394020;19;20388;-72
2023/05/07 07:26:55;;;;;;;16.50;13.80;;;;;;;13.28;100.00;96507.16;7395894;19;20356;-72
2023/05/07 07:29:25;;;;;;;17.57;15.33;;;;;;;13.49;100.00;96507.75;7392999;19;20441;-72
2023/05/07 07:31:52;;;;;;;16.20;14.70;;;;;;;13.40;100.00;96475.25;7395706;19;20432;-72
2023/05/07 07:34:20;;;;;;;16.67;14.93;;;;;;;13.97;100.00;96503.22;7394173;19;20434;-72
2023/05/07 07:36:48;;;;;;;17.63;15.60;;;;;;;13.92;100.00;96460.19;7396333;19;20368;-72
2023/05/07 07:39:17;;;;;;;16.20;14.50;;;;;;;14.46;100.00;96519.59;7392258;19;20432;-72
2023/05/07 07:41:46;;;;;;;17.93;16.13;;;;;;;13.44;100.00;96505.31;7393007;19;20375;-72
2023/05/07 07:44:14;;;;;;;17.30;15.37;;;;;;;13.28;100.00;96502.63;7398525;19;20484;-72
2023/05/07 07:46:45;;;;;;;16.73;15.13;;;;;;;13.91;100.00;96515.25;7400727;19;20378;-72
2023/05/07 07:49:13;;;;;;;15.97;14.07;;;;;;;13.68;100.00;96498.34;7399838;19;20424;-72
2023/05/07 07:51:41;;;;;;;16.40;14.63;;;;;;;13.61;100.00;96470.44;7399815;19;20364;-72
2023/05/07 07:54:09;;;;;;;16.90;14.40;;;;;;;14.45;100.00;96518.06;7401090;19;20907;-72
2023/05/07 07:56:37;;;;;;;21.57;14.27;;;;;;;14.37;100.00;96503.03;7399771;19;20690;-72
2023/05/07 07:59:05;;;;;;;16.13;14.50;;;;;;;15.16;100.00;96523.34;7399817;19;20438;-72
2023/05/07 08:01:34;;;;;;;16.63;12.40;;;;;;;14.82;100.00;96500.97;7400058;19;20397;-72
2023/05/07 08:04:03;;;;;;;14.97;13.37;;;;;;;15.06;100.00;96525.44;7401662;19;20396;-72
2023/05/07 08:06:33;;;;;;;17.47;15.37;;;;;;;14.70;100.00;96523.94;7400155;19;20360;-72
2023/05/07 08:09:00;;;;;;;16.73;14.80;;;;;;;14.45;100.00;96525.28;7400302;19;20775;-72
2023/05/07 08:11:28;;;;;;;14.83;13.43;;;;;;;14.14;100.00;96526.03;7399921;19;20376;-72
2023/05/07 08:13:56;;;;;;;16.90;14.20;;;;;;;14.58;100.00;96534.69;7401256;19;20376;-73
2023/05/07 08:16:23;;;;;;;16.37;14.67;;;;;;;13.88;100.00;96486.66;7399696;19;20368;-73
2023/05/07 08:18:52;;;;;;;15.70;14.20;;;;;;;14.06;100.00;96519.78;7399757;19;20425;-73
2023/05/07 08:21:20;;;;;;;15.30;13.70;;;;;;;14.47;100.00;96529.13;7400115;19;20452;-72
2023/05/07 08:23:47;;;;;;;14.13;12.73;;;;;;;14.57;100.00;96516.41;7402623;19;20359;-72
2023/05/07 08:26:14;;;;;;;15.07;13.50;;;;;;;14.52;100.00;96516.66;7400179;19;20409;-72
2023/05/07 08:28:42;;;;;;;14.40;12.97;;;;;;;14.86;100.00;96501.81;7397267;19;20448;-72
2023/05/07 08:31:09;;;;;;;15.50;13.47;;;;;;;15.18;100.00;96511.22;7400002;19;20360;-72
2023/05/07 08:33:38;;;;;;;14.37;12.97;;;;;;;15.52;100.00;96511.47;7398175;19;20393;-72
2023/05/07 08:36:06;;;;;;;14.27;12.60;;;;;;;15.26;100.00;96504.13;7400076;19;20376;-73
2023/05/07 08:38:33;;;;;;;16.13;14.53;;;;;;;15.03;100.00;96517.38;7397121;19;20964;-73
2023/05/07 08:41:01;;;;;;;15.40;13.80;;;;;;;15.24;100.00;96499.16;7399574;19;20373;-73
2023/05/07 08:43:33;;;;;;;13.43;12.03;;;;;;;15.55;100.00;96513.44;7398528;19;20419;-73
2023/05/07 08:46:02;;;;;;;15.57;14.07;;;;;;;15.52;100.00;96525.56;7400673;19;20377;-73
2023/05/07 08:48:33;;;;;;;14.03;12.47;;;;;;;15.89;100.00;96525.09;7403005;19;20940;-73
2023/05/07 08:51:06;;;;;;;14.97;11.70;;;;;;;16.12;100.00;96511.75;7435678;19;20386;-73
2023/05/07 08:53:35;;;;;;;15.17;13.67;;;;;;;16.16;100.00;96518.69;7434215;19;20376;-74
2023/05/07 08:56:02;;;;;;;12.97;11.80;;;;;;;16.76;100.00;96518.06;7432347;19;20408;-72
2023/05/07 08:58:29;;;;;;;12.47;11.17;;;;;;;16.43;100.00;96514.16;7398591;19;20450;-74
2023/05/07 09:00:57;;;;;;;12.33;11.03;;;;;;;16.55;100.00;96534.50;7400266;19;20451;-74
2023/05/07 09:03:24;;;;;;;13.77;12.47;;;;;;;16.15;100.00;96522.47;7398383;19;20400;-74
2023/05/07 09:05:53;;;;;;;11.43;10.40;;;;;;;16.51;100.00;96526.47;7400006;19;20368;-74
2023/05/07 09:08:27;;;;;;;11.50;10.40;;;;;;;16.86;100.00;96488.06;7397795;19;20387;-73
2023/05/07 09:10:57;;;;;;;11.27;10.07;;;;;;;16.82;100.00;96521.94;7399846;19;20451;-74
2023/05/07 09:13:23;;;;;;;11.33;10.23;;;;;;;16.83;100.00;96528.84;7399020;19;20385;-74
2023/05/07 09:15:50;;;;;;;12.37;11.27;;;;;;;16.47;100.00;96504.28;7397067;19;20812;-74
2023/05/07 09:18:19;;;;;;;11.97;10.87;;;;;;;16.92;100.00;96523.22;7397744;19;20393;-74
2023/05/07 09:20:47;;;;;;;11.80;10.13;;;;;;;16.96;100.00;96508.81;7397060;19;20368;-73
2023/05/07 09:23:17;;;;;;;11.87;10.63;;;;;;;17.20;100.00;96512.88;7398815;19;20738;-74
2023/05/07 09:25:45;;;;;;;12.50;11.40;;;;;;;17.18;100.00;96493.00;7397083;19;20441;-74
2023/05/07 09:28:21;;;;;;;10.93;9.83;;;;;;;17.46;100.00;96512.03;7398080;19;20916;-74
2023/05/07 09:30:48;;;;;;;10.70;9.70;;;;;;;17.16;100.00;96488.03;7396783;19;20365;-73
2023/05/07 09:33:15;;;;;;;12.73;10.90;;;;;;;17.01;100.00;96489.78;7398589;19;20428;-75
2023/05/07 09:35:50;;;;;;;11.13;10.03;;;;;;;17.02;100.00;96477.19;7398024;19;20381;-75
2023/05/07 09:38:21;;;;;;;11.30;10.13;;;;;;;17.65;100.00;96484.34;7399212;19;20401;-75
2023/05/07 09:41:12;;;;;;;10.70;9.87;;;;;;;16.96;100.00;96500.78;7397036;19;20893;-75
2023/05/07 09:44:05;;;;;;;8.90;8.10;;;;;;;17.44;100.00;96483.00;7398304;19;20957;-75
2023/05/07 09:46:42;;;;;;;12.63;8.50;;;;;;;17.31;100.00;96489.72;7396176;19;20369;-75
2023/05/07 09:49:22;;;;;;;10.47;9.57;;;;;;;17.42;100.00;96487.16;7396576;19;20442;-75
2023/05/07 09:51:54;;;;;;;10.63;9.63;;;;;;;17.55;100.00;96498.38;7396821;19;20447;-75
2023/05/07 09:54:24;;;;;;;10.30;9.50;;;;;;;17.58;100.00;96503.75;7395930;19;20457;-75
2023/05/07 09:56:55;;;;;;;10.07;9.10;;;;;;;17.67;100.00;96504.25;7397141;19;20424;-75
2023/05/07 09:59:26;;;;;;;11.00;9.90;;;;;;;17.94;100.00;96498.78;7397866;19;20424;-75
2023/05/07 10:01:58;;;;;;;10.57;9.67;;;;;;;18.43;100.00;96514.47;7397274;19;20394;-74
2023/05/07 10:04:27;;;;;;;10.53;9.63;;;;;;;17.85;100.00;96515.13;7395179;19;20899;-74
2023/05/07 10:06:55;;;;;;;8.70;7.83;;;;;;;18.34;100.00;96511.31;7397999;19;20359;-74
2023/05/07 10:09:25;;;;;;;9.70;8.90;;;;;;;18.41;100.00;96486.50;7393952;19;20426;-74
2023/05/07 10:11:54;;;;;;;10.33;9.53;;;;;;;18.16;100.00;96516.56;7396589;19;20922;-74
2023/05/07 10:14:21;;;;;;;10.97;9.97;;;;;;;18.39;100.00;96523.59;7395506;19;20401;-75
2023/05/07 10:16:53;;;;;;;10.53;9.53;;;;;;;17.85;100.00;96509.78;7396546;19;20413;-75
2023/05/07 10:19:22;;;;;;;11.07;9.90;;;;;;;17.82;100.00;96493.69;7395588;19;20811;-75
2023/05/07 10:21:59;;;;;;;9.80;8.87;;;;;;;17.54;100.00;96472.78;7398274;19;20406;-75
2023/05/07 10:24:35;;;;;;;10.13;9.13;;;;;;;17.99;100.00;96511.81;7395902;19;20386;-75
2023/05/07 10:27:11;;;;;;;10.80;9.40;;;;;;;18.12;100.00;96496.22;7394587;19;20381;-75
2023/05/07 10:29:58;;;;;;;9.10;8.23;;;;;;;18.30;100.00;96515.88;7395128;19;21012;-75
2023/05/07 10:32:44;;;;;;;9.70;8.90;;;;;;;18.61;100.00;96519.91;7396835;19;20373;-75
2023/05/07 10:35:24;;;;;;;8.60;7.90;;;;;;;18.58;100.00;96505.38;7394086;19;20753;-75
2023/05/07 10:37:52;;;;;;;9.70;8.77;;;;;;;18.46;100.00;96511.03;7394527;19;20965;-76
2023/05/07 10:40:21;;;;;;;8.80;8.00;;;;;;;18.40;100.00;96498.34;7392694;19;20457;-76
2023/05/07 10:43:01;;;;;;;8.50;7.80;;;;;;;18.40;100.00;96517.84;7395750;19;20916;-75
2023/05/07 10:45:34;;;;;;;9.10;8.30;;;;;;;18.25;100.00;96514.31;7395100;19;20408;-75
2023/05/07 10:48:06;;;;;;;9.50;8.60;;;;;;;17.95;100.00;96517.13;7396822;19;20391;-75
2023/05/07 10:51:18;;;;;;;12.33;11.33;;;;;;;17.32;100.00;96503.84;7396288;19;20366;-75
2023/05/07 10:53:46;;;;;;;9.43;8.30;;;;;;;17.65;100.00;96495.81;7395063;19;20908;-75
2023/05/07 10:56:18;;;;;;;10.87;9.97;;;;;;;18.21;100.00;96508.16;7393420;19;20930;-76
2023/05/07 10:58:51;;;;;;;8.80;7.90;;;;;;;18.62;100.00;96502.69;7394458;19;20446;-75
2023/05/07 11:01:54;;;;;;;10.83;9.53;;;;;;;18.75;100.00;96525.38;7394694;19;20407;-76
2023/05/07 11:04:34;;;;;;;8.40;7.63;;;;;;;19.00;100.00;96527.44;7394668;19;20409;-75
2023/05/07 11:07:31;;;;;;;8.53;7.73;;;;;;;18.80;100.00;96506.28;7394433;19;20386;-75
2023/05/07 11:10:04;;;;;;;9.87;8.60;;;;;;;18.88;100.00;96513.22;7393639;19;20508;-75
2023/05/07 11:12:57;;;;;;;11.03;9.87;;;;;;;18.98;100.00;96519.78;7394304;19;20404;-75
2023/05/07 11:15:35;;;;;;;10.20;9.10;;;;;;;18.33;100.00;96514.38;7395899;19;20936;-75
2023/05/07 11:18:05;;;;;;;9.10;8.33;;;;;;;18.00;100.00;96505.31;7395218;19;20384;-75
2023/05/07 11:20:50;;;;;;;8.97;8.07;;;;;;;18.63;100.00;96501.56;7398034;19;20722;-75
2023/05/07 11:23:37;;;;;;;9.10;8.30;;;;;;;19.19;100.00;96516.41;7402647;19;20397;-75
2023/05/07 11:26:21;;;;;;;8.00;7.40;;;;;;;19.66;100.00;96477.88;7402430;19;20374;-75
2023/05/07 11:28:48;;;;;;;8.23;7.53;;;;;;;20.32;100.00;96475.59;7399998;19;20431;-75
2023/05/07 11:31:21;;;;;;;8.30;7.67;;;;;;;19.63;100.00;96496.63;7401882;19;20901;-75